sensor_id;sensor_type;location;lat;lon;timestamp;P1;durP1;ratioP1;P2;durP2;ratioP2
29938;SDS011;16799;50.844;5.304;2023-04-24T00:01:47;17.60;;;10.23;;
29938;SDS011;16799;50.844;5.304;2023-04-24T00:04:12;12.43;;;10.20;;
29938;SDS011;16799;50.844;5.304;2023-04-24T00:06:39;15.27;;;10.93;;
29938;SDS011;16799;50.844;5.304;2023-04-24T00:09:07;17.20;;;10.70;;
29938;SDS011;16799;50.844;5.304;2023-04-24T00:11:35;13.40;;;9.47;;
29938;SDS011;16799;50.844;5.304;2023-04-24T00:14:01;13.03;;;11.60;;
29938;SDS011;16799;50.844;5.304;2023-04-24T00:16:27;15.37;;;10.80;;
29938;SDS011;16799;50.844;5.304;2023-04-24T00:18:53;24.77;;;12.53;;
29938;SDS011;16799;50.844;5.304;2023-04-24T00:21:19;20.00;;;12.47;;
29938;SDS011;16799;50.844;5.304;2023-04-24T00:23:45;14.23;;;11.90;;
29938;SDS011;16799;50.844;5.304;2023-04-24T00:26:12;18.23;;;11.10;;
29938;SDS011;16799;50.844;5.304;2023-04-24T00:28:37;19.43;;;12.63;;
29938;SDS011;16799;50.844;5.304;2023-04-24T00:31:03;23.10;;;12.70;;
29938;SDS011;16799;50.844;5.304;2023-04-24T00:33:29;28.20;;;13.33;;
29938;SDS011;16799;50.844;5.304;2023-04-24T00:35:54;15.77;;;11.63;;
29938;SDS011;16799;50.844;5.304;2023-04-24T00:38:20;28.97;;;12.73;;
29938;SDS011;16799;50.844;5.304;2023-04-24T00:40:47;29.27;;;12.60;;
29938;SDS011;16799;50.844;5.304;2023-04-24T00:43:14;30.37;;;13.03;;
29938;SDS011;16799;50.844;5.304;2023-04-24T00:45:40;20.80;;;11.77;;
29938;SDS011;16799;50.844;5.304;2023-04-24T00:48:06;21.97;;;13.20;;
29938;SDS011;16799;50.844;5.304;2023-04-24T00:50:32;16.80;;;13.93;;
29938;SDS011;16799;50.844;5.304;2023-04-24T00:53:00;22.63;;;15.17;;
29938;SDS011;16799;50.844;5.304;2023-04-24T00:55:26;20.73;;;14.07;;
29938;SDS011;16799;50.844;5.304;2023-04-24T00:57:52;24.80;;;11.33;;
29938;SDS011;16799;50.844;5.304;2023-04-24T01:00:17;21.43;;;13.23;;
29938;SDS011;16799;50.844;5.304;2023-04-24T01:02:44;23.43;;;13.30;;
29938;SDS011;16799;50.844;5.304;2023-04-24T01:05:14;22.63;;;13.13;;
29938;SDS011;16799;50.844;5.304;2023-04-24T01:07:40;26.63;;;12.47;;
29938;SDS011;16799;50.844;5.304;2023-04-24T01:10:10;21.47;;;12.07;;
29938;SDS011;16799;50.844;5.304;2023-04-24T01:12:37;18.20;;;13.43;;
29938;SDS011;16799;50.844;5.304;2023-04-24T01:15:03;37.87;;;12.90;;
29938;SDS011;16799;50.844;5.304;2023-04-24T01:17:29;31.03;;;16.13;;
29938;SDS011;16799;50.844;5.304;2023-04-24T01:19:54;16.63;;;12.30;;
29938;SDS011;16799;50.844;5.304;2023-04-24T01:22:21;27.70;;;12.80;;
29938;SDS011;16799;50.844;5.304;2023-04-24T01:24:48;29.67;;;12.10;;
29938;SDS011;16799;50.844;5.304;2023-04-24T01:27:13;24.03;;;14.10;;
29938;SDS011;16799;50.844;5.304;2023-04-24T01:29:39;22.20;;;13.33;;
29938;SDS011;16799;50.844;5.304;2023-04-24T01:32:06;20.93;;;14.00;;
29938;SDS011;16799;50.844;5.304;2023-04-24T01:34:32;17.73;;;12.33;;
29938;SDS011;16799;50.844;5.304;2023-04-24T01:36:58;18.07;;;11.87;;
29938;SDS011;16799;50.844;5.304;2023-04-24T01:39:24;14.60;;;12.50;;
29938;SDS011;16799;50.844;5.304;2023-04-24T01:41:51;16.07;;;13.03;;
29938;SDS011;16799;50.844;5.304;2023-04-24T01:44:18;15.27;;;12.00;;
29938;SDS011;16799;50.844;5.304;2023-04-24T01:46:43;15.33;;;11.00;;
29938;SDS011;16799;50.844;5.304;2023-04-24T01:49:09;12.97;;;11.67;;
29938;SDS011;16799;50.844;5.304;2023-04-24T01:51:35;18.37;;;13.70;;
29938;SDS011;16799;50.844;5.304;2023-04-24T01:54:01;21.10;;;12.50;;
29938;SDS011;16799;50.844;5.304;2023-04-24T01:56:28;25.17;;;15.27;;
29938;SDS011;16799;50.844;5.304;2023-04-24T01:58:55;20.40;;;13.17;;
29938;SDS011;16799;50.844;5.304;2023-04-24T02:01:23;14.93;;;12.27;;
29938;SDS011;16799;50.844;5.304;2023-04-24T02:03:49;21.60;;;14.27;;
29938;SDS011;16799;50.844;5.304;2023-04-24T02:06:14;21.93;;;12.17;;
29938;SDS011;16799;50.844;5.304;2023-04-24T02:08:40;27.37;;;13.87;;
29938;SDS011;16799;50.844;5.304;2023-04-24T02:11:06;23.03;;;12.70;;
29938;SDS011;16799;50.844;5.304;2023-04-24T02:13:31;20.20;;;14.07;;
29938;SDS011;16799;50.844;5.304;2023-04-24T02:16:00;23.77;;;13.30;;
29938;SDS011;16799;50.844;5.304;2023-04-24T02:18:26;23.27;;;12.73;;
29938;SDS011;16799;50.844;5.304;2023-04-24T02:20:51;19.50;;;14.23;;
29938;SDS011;16799;50.844;5.304;2023-04-24T02:23:17;21.17;;;13.40;;
29938;SDS011;16799;50.844;5.304;2023-04-24T02:25:43;27.63;;;13.60;;
29938;SDS011;16799;50.844;5.304;2023-04-24T02:28:08;12.07;;;10.27;;
29938;SDS011;16799;50.844;5.304;2023-04-24T02:30:34;22.33;;;13.20;;
29938;SDS011;16799;50.844;5.304;2023-04-24T02:32:59;27.57;;;12.23;;
29938;SDS011;16799;50.844;5.304;2023-04-24T02:35:25;20.33;;;11.30;;
29938;SDS011;16799;50.844;5.304;2023-04-24T02:37:51;14.53;;;13.07;;
29938;SDS011;16799;50.844;5.304;2023-04-24T02:40:16;14.40;;;12.30;;
29938;SDS011;16799;50.844;5.304;2023-04-24T02:42:42;19.23;;;11.60;;
29938;SDS011;16799;50.844;5.304;2023-04-24T02:45:08;15.97;;;11.70;;
29938;SDS011;16799;50.844;5.304;2023-04-24T02:47:34;17.40;;;13.00;;
29938;SDS011;16799;50.844;5.304;2023-04-24T02:50:00;13.83;;;11.13;;
29938;SDS011;16799;50.844;5.304;2023-04-24T02:52:26;20.00;;;13.10;;
29938;SDS011;16799;50.844;5.304;2023-04-24T02:54:51;19.03;;;13.27;;
29938;SDS011;16799;50.844;5.304;2023-04-24T02:57:18;14.83;;;12.20;;
29938;SDS011;16799;50.844;5.304;2023-04-24T02:59:44;21.87;;;14.67;;
29938;SDS011;16799;50.844;5.304;2023-04-24T03:02:09;21.93;;;14.57;;
29938;SDS011;16799;50.844;5.304;2023-04-24T03:04:35;23.47;;;13.13;;
29938;SDS011;16799;50.844;5.304;2023-04-24T03:07:01;33.80;;;15.27;;
29938;SDS011;16799;50.844;5.304;2023-04-24T03:09:27;34.03;;;14.57;;
29938;SDS011;16799;50.844;5.304;2023-04-24T03:11:52;20.83;;;14.43;;
29938;SDS011;16799;50.844;5.304;2023-04-24T03:14:18;25.03;;;16.00;;
29938;SDS011;16799;50.844;5.304;2023-04-24T03:16:44;26.53;;;15.57;;
29938;SDS011;16799;50.844;5.304;2023-04-24T03:19:10;21.33;;;13.87;;
29938;SDS011;16799;50.844;5.304;2023-04-24T03:21:35;31.40;;;14.57;;
29938;SDS011;16799;50.844;5.304;2023-04-24T03:24:05;22.20;;;15.13;;
29938;SDS011;16799;50.844;5.304;2023-04-24T03:26:37;28.90;;;16.60;;
29938;SDS011;16799;50.844;5.304;2023-04-24T03:29:02;30.97;;;15.37;;
29938;SDS011;16799;50.844;5.304;2023-04-24T03:31:28;20.90;;;15.00;;
29938;SDS011;16799;50.844;5.304;2023-04-24T03:33:54;18.80;;;12.93;;
29938;SDS011;16799;50.844;5.304;2023-04-24T03:36:20;17.23;;;13.27;;
29938;SDS011;16799;50.844;5.304;2023-04-24T03:38:45;23.07;;;14.93;;
29938;SDS011;16799;50.844;5.304;2023-04-24T03:41:11;21.53;;;13.70;;
29938;SDS011;16799;50.844;5.304;2023-04-24T03:43:37;18.63;;;13.47;;
29938;SDS011;16799;50.844;5.304;2023-04-24T03:46:03;22.83;;;13.90;;
29938;SDS011;16799;50.844;5.304;2023-04-24T03:48:29;28.53;;;14.10;;
29938;SDS011;16799;50.844;5.304;2023-04-24T03:50:54;20.33;;;13.40;;
29938;SDS011;16799;50.844;5.304;2023-04-24T03:53:20;20.40;;;14.53;;
29938;SDS011;16799;50.844;5.304;2023-04-24T03:55:46;19.60;;;12.30;;
29938;SDS011;16799;50.844;5.304;2023-04-24T03:58:12;25.20;;;14.40;;
29938;SDS011;16799;50.844;5.304;2023-04-24T04:00:40;24.93;;;13.53;;
29938;SDS011;16799;50.844;5.304;2023-04-24T04:03:06;18.40;;;11.13;;
29938;SDS011;16799;50.844;5.304;2023-04-24T04:05:32;23.17;;;13.10;;
29938;SDS011;16799;50.844;5.304;2023-04-24T04:07:57;25.53;;;14.47;;
29938;SDS011;16799;50.844;5.304;2023-04-24T04:10:23;26.10;;;13.17;;
29938;SDS011;16799;50.844;5.304;2023-04-24T04:12:48;22.50;;;13.10;;
29938;SDS011;16799;50.844;5.304;2023-04-24T04:15:14;22.47;;;14.70;;
29938;SDS011;16799;50.844;5.304;2023-04-24T04:17:40;23.93;;;14.27;;
29938;SDS011;16799;50.844;5.304;2023-04-24T04:20:06;20.23;;;12.53;;
29938;SDS011;16799;50.844;5.304;2023-04-24T04:22:35;17.17;;;12.17;;
29938;SDS011;16799;50.844;5.304;2023-04-24T04:25:01;15.80;;;12.87;;
29938;SDS011;16799;50.844;5.304;2023-04-24T04:27:28;32.83;;;13.00;;
29938;SDS011;16799;50.844;5.304;2023-04-24T04:29:56;18.40;;;12.87;;
29938;SDS011;16799;50.844;5.304;2023-04-24T04:32:24;18.77;;;11.83;;
29938;SDS011;16799;50.844;5.304;2023-04-24T04:34:49;16.47;;;13.47;;
29938;SDS011;16799;50.844;5.304;2023-04-24T04:37:18;26.10;;;13.87;;
29938;SDS011;16799;50.844;5.304;2023-04-24T04:39:44;17.47;;;11.40;;
29938;SDS011;16799;50.844;5.304;2023-04-24T04:42:09;26.13;;;13.10;;
29938;SDS011;16799;50.844;5.304;2023-04-24T04:44:35;20.37;;;10.93;;
29938;SDS011;16799;50.844;5.304;2023-04-24T04:47:01;15.17;;;11.67;;
29938;SDS011;16799;50.844;5.304;2023-04-24T04:49:30;15.10;;;11.80;;
29938;SDS011;16799;50.844;5.304;2023-04-24T04:51:57;18.33;;;12.00;;
29938;SDS011;16799;50.844;5.304;2023-04-24T04:54:22;11.80;;;10.57;;
29938;SDS011;16799;50.844;5.304;2023-04-24T04:56:51;17.17;;;11.43;;
29938;SDS011;16799;50.844;5.304;2023-04-24T04:59:17;21.17;;;12.70;;
29938;SDS011;16799;50.844;5.304;2023-04-24T05:01:43;14.73;;;10.60;;
29938;SDS011;16799;50.844;5.304;2023-04-24T05:04:08;10.10;;;9.30;;
29938;SDS011;16799;50.844;5.304;2023-04-24T05:06:34;18.07;;;11.13;;
29938;SDS011;16799;50.844;5.304;2023-04-24T05:09:00;12.83;;;8.17;;
29938;SDS011;16799;50.844;5.304;2023-04-24T05:11:25;12.70;;;9.50;;
29938;SDS011;16799;50.844;5.304;2023-04-24T05:13:51;11.47;;;8.87;;
29938;SDS011;16799;50.844;5.304;2023-04-24T05:16:16;13.07;;;10.70;;
29938;SDS011;16799;50.844;5.304;2023-04-24T05:18:42;10.67;;;9.60;;
29938;SDS011;16799;50.844;5.304;2023-04-24T05:21:08;17.13;;;9.90;;
29938;SDS011;16799;50.844;5.304;2023-04-24T05:23:34;10.23;;;8.80;;
29938;SDS011;16799;50.844;5.304;2023-04-24T05:25:59;11.47;;;9.80;;
29938;SDS011;16799;50.844;5.304;2023-04-24T05:28:25;9.90;;;8.20;;
29938;SDS011;16799;50.844;5.304;2023-04-24T05:30:53;13.73;;;8.47;;
29938;SDS011;16799;50.844;5.304;2023-04-24T05:33:20;9.00;;;7.73;;
29938;SDS011;16799;50.844;5.304;2023-04-24T05:35:47;10.63;;;9.07;;
29938;SDS011;16799;50.844;5.304;2023-04-24T05:38:13;11.80;;;9.43;;
29938;SDS011;16799;50.844;5.304;2023-04-24T05:40:42;21.60;;;9.90;;
29938;SDS011;16799;50.844;5.304;2023-04-24T05:43:08;12.33;;;8.57;;
29938;SDS011;16799;50.844;5.304;2023-04-24T05:45:33;12.67;;;9.57;;
29938;SDS011;16799;50.844;5.304;2023-04-24T05:48:01;15.57;;;10.40;;
29938;SDS011;16799;50.844;5.304;2023-04-24T05:50:27;12.23;;;10.73;;
29938;SDS011;16799;50.844;5.304;2023-04-24T05:52:53;10.93;;;8.23;;
29938;SDS011;16799;50.844;5.304;2023-04-24T05:55:18;12.70;;;8.97;;
29938;SDS011;16799;50.844;5.304;2023-04-24T05:57:44;13.87;;;8.90;;
29938;SDS011;16799;50.844;5.304;2023-04-24T06:00:11;11.17;;;9.10;;
29938;SDS011;16799;50.844;5.304;2023-04-24T06:02:40;13.13;;;9.90;;
29938;SDS011;16799;50.844;5.304;2023-04-24T06:05:06;13.90;;;9.17;;
29938;SDS011;16799;50.844;5.304;2023-04-24T06:07:33;12.10;;;9.47;;
29938;SDS011;16799;50.844;5.304;2023-04-24T06:09:59;13.37;;;9.37;;
29938;SDS011;16799;50.844;5.304;2023-04-24T06:12:25;10.57;;;9.33;;
29938;SDS011;16799;50.844;5.304;2023-04-24T06:14:51;20.23;;;13.00;;
29938;SDS011;16799;50.844;5.304;2023-04-24T06:17:16;13.70;;;11.97;;
29938;SDS011;16799;50.844;5.304;2023-04-24T06:19:42;19.00;;;11.53;;
29938;SDS011;16799;50.844;5.304;2023-04-24T06:22:08;16.67;;;11.43;;
29938;SDS011;16799;50.844;5.304;2023-04-24T06:24:34;16.33;;;10.60;;
29938;SDS011;16799;50.844;5.304;2023-04-24T06:27:00;14.40;;;10.83;;
29938;SDS011;16799;50.844;5.304;2023-04-24T06:29:26;15.00;;;10.73;;
29938;SDS011;16799;50.844;5.304;2023-04-24T06:31:52;14.57;;;10.97;;
29938;SDS011;16799;50.844;5.304;2023-04-24T06:34:18;13.30;;;11.23;;
29938;SDS011;16799;50.844;5.304;2023-04-24T06:36:44;12.00;;;9.63;;
29938;SDS011;16799;50.844;5.304;2023-04-24T06:39:09;18.03;;;11.50;;
29938;SDS011;16799;50.844;5.304;2023-04-24T06:41:35;15.13;;;10.30;;
29938;SDS011;16799;50.844;5.304;2023-04-24T06:44:01;13.50;;;10.03;;
29938;SDS011;16799;50.844;5.304;2023-04-24T06:46:26;17.53;;;11.63;;
29938;SDS011;16799;50.844;5.304;2023-04-24T06:48:53;12.30;;;10.07;;
29938;SDS011;16799;50.844;5.304;2023-04-24T06:51:25;19.00;;;11.50;;
29938;SDS011;16799;50.844;5.304;2023-04-24T06:53:54;20.30;;;12.27;;
29938;SDS011;16799;50.844;5.304;2023-04-24T06:56:21;19.53;;;11.93;;
29938;SDS011;16799;50.844;5.304;2023-04-24T06:58:47;32.03;;;12.83;;
29938;SDS011;16799;50.844;5.304;2023-04-24T07:01:13;16.17;;;12.60;;
29938;SDS011;16799;50.844;5.304;2023-04-24T07:03:38;27.80;;;12.50;;
29938;SDS011;16799;50.844;5.304;2023-04-24T07:06:04;20.97;;;14.40;;
29938;SDS011;16799;50.844;5.304;2023-04-24T07:08:31;16.70;;;11.00;;
29938;SDS011;16799;50.844;5.304;2023-04-24T07:10:58;21.43;;;13.20;;
29938;SDS011;16799;50.844;5.304;2023-04-24T07:13:24;18.10;;;12.27;;
29938;SDS011;16799;50.844;5.304;2023-04-24T07:15:49;21.00;;;15.30;;
29938;SDS011;16799;50.844;5.304;2023-04-24T07:18:17;25.17;;;13.37;;
29938;SDS011;16799;50.844;5.304;2023-04-24T07:20:43;22.17;;;16.77;;
29938;SDS011;16799;50.844;5.304;2023-04-24T07:23:09;21.47;;;15.67;;
29938;SDS011;16799;50.844;5.304;2023-04-24T07:25:35;22.97;;;14.00;;
29938;SDS011;16799;50.844;5.304;2023-04-24T07:28:01;22.90;;;13.27;;
29938;SDS011;16799;50.844;5.304;2023-04-24T07:30:27;17.63;;;14.07;;
29938;SDS011;16799;50.844;5.304;2023-04-24T07:32:54;19.03;;;14.30;;
29938;SDS011;16799;50.844;5.304;2023-04-24T07:35:20;27.67;;;14.07;;
29938;SDS011;16799;50.844;5.304;2023-04-24T07:37:46;19.67;;;14.53;;
29938;SDS011;16799;50.844;5.304;2023-04-24T07:40:14;26.30;;;15.93;;
29938;SDS011;16799;50.844;5.304;2023-04-24T07:42:40;22.93;;;14.00;;
29938;SDS011;16799;50.844;5.304;2023-04-24T07:45:07;35.67;;;16.13;;
29938;SDS011;16799;50.844;5.304;2023-04-24T07:47:33;29.87;;;17.40;;
29938;SDS011;16799;50.844;5.304;2023-04-24T07:49:59;24.90;;;17.50;;
29938;SDS011;16799;50.844;5.304;2023-04-24T07:52:24;30.47;;;16.77;;
29938;SDS011;16799;50.844;5.304;2023-04-24T07:54:50;27.53;;;17.10;;
29938;SDS011;16799;50.844;5.304;2023-04-24T07:57:17;24.67;;;17.23;;
29938;SDS011;16799;50.844;5.304;2023-04-24T07:59:43;23.73;;;16.90;;
29938;SDS011;16799;50.844;5.304;2023-04-24T08:02:09;40.33;;;18.17;;
29938;SDS011;16799;50.844;5.304;2023-04-24T08:04:34;30.00;;;19.40;;
29938;SDS011;16799;50.844;5.304;2023-04-24T08:07:00;37.77;;;18.70;;
29938;SDS011;16799;50.844;5.304;2023-04-24T08:09:26;39.13;;;20.83;;
29938;SDS011;16799;50.844;5.304;2023-04-24T08:11:51;24.93;;;17.43;;
29938;SDS011;16799;50.844;5.304;2023-04-24T08:14:18;33.47;;;19.80;;
29938;SDS011;16799;50.844;5.304;2023-04-24T08:16:43;30.00;;;16.70;;
29938;SDS011;16799;50.844;5.304;2023-04-24T08:19:09;26.10;;;16.23;;
29938;SDS011;16799;50.844;5.304;2023-04-24T08:21:35;24.27;;;15.03;;
29938;SDS011;16799;50.844;5.304;2023-04-24T08:24:01;30.63;;;15.57;;
29938;SDS011;16799;50.844;5.304;2023-04-24T08:26:30;23.60;;;13.30;;
29938;SDS011;16799;50.844;5.304;2023-04-24T08:28:56;19.40;;;14.30;;
29938;SDS011;16799;50.844;5.304;2023-04-24T08:31:21;18.80;;;13.70;;
29938;SDS011;16799;50.844;5.304;2023-04-24T08:33:47;19.70;;;11.73;;
29938;SDS011;16799;50.844;5.304;2023-04-24T08:36:13;18.90;;;11.50;;
29938;SDS011;16799;50.844;5.304;2023-04-24T08:38:39;15.73;;;10.33;;
29938;SDS011;16799;50.844;5.304;2023-04-24T08:41:05;24.77;;;9.00;;
29938;SDS011;16799;50.844;5.304;2023-04-24T08:43:32;8.07;;;7.23;;
29938;SDS011;16799;50.844;5.304;2023-04-24T08:46:01;16.30;;;9.17;;
29938;SDS011;16799;50.844;5.304;2023-04-24T08:48:29;11.93;;;9.50;;
29938;SDS011;16799;50.844;5.304;2023-04-24T08:50:55;14.63;;;7.50;;
29938;SDS011;16799;50.844;5.304;2023-04-24T08:53:22;23.57;;;8.73;;
29938;SDS011;16799;50.844;5.304;2023-04-24T08:55:50;17.40;;;9.33;;
29938;SDS011;16799;50.844;5.304;2023-04-24T08:58:16;18.37;;;8.70;;
29938;SDS011;16799;50.844;5.304;2023-04-24T09:00:43;11.43;;;9.17;;
29938;SDS011;16799;50.844;5.304;2023-04-24T09:03:12;8.70;;;7.17;;
29938;SDS011;16799;50.844;5.304;2023-04-24T09:05:40;11.33;;;7.20;;
29938;SDS011;16799;50.844;5.304;2023-04-24T09:08:10;10.77;;;7.80;;
29938;SDS011;16799;50.844;5.304;2023-04-24T09:10:38;18.43;;;7.77;;
29938;SDS011;16799;50.844;5.304;2023-04-24T09:13:05;16.33;;;6.50;;
29938;SDS011;16799;50.844;5.304;2023-04-24T09:15:31;22.90;;;7.40;;
29938;SDS011;16799;50.844;5.304;2023-04-24T09:17:56;16.03;;;8.23;;
29938;SDS011;16799;50.844;5.304;2023-04-24T09:20:22;15.80;;;7.60;;
29938;SDS011;16799;50.844;5.304;2023-04-24T09:22:48;15.27;;;7.37;;
29938;SDS011;16799;50.844;5.304;2023-04-24T09:25:20;9.37;;;8.47;;
29938;SDS011;16799;50.844;5.304;2023-04-24T09:27:46;19.60;;;9.43;;
29938;SDS011;16799;50.844;5.304;2023-04-24T09:30:12;14.20;;;8.43;;
29938;SDS011;16799;50.844;5.304;2023-04-24T09:32:38;29.80;;;13.73;;
29938;SDS011;16799;50.844;5.304;2023-04-24T09:35:05;16.13;;;9.47;;
29938;SDS011;16799;50.844;5.304;2023-04-24T09:37:36;12.73;;;8.53;;
29938;SDS011;16799;50.844;5.304;2023-04-24T09:40:18;17.83;;;8.83;;
29938;SDS011;16799;50.844;5.304;2023-04-24T09:42:46;23.27;;;9.13;;
29938;SDS011;16799;50.844;5.304;2023-04-24T09:45:20;12.40;;;8.83;;
29938;SDS011;16799;50.844;5.304;2023-04-24T09:47:45;16.20;;;7.90;;
29938;SDS011;16799;50.844;5.304;2023-04-24T09:50:16;9.50;;;6.83;;
29938;SDS011;16799;50.844;5.304;2023-04-24T09:52:46;20.27;;;9.10;;
29938;SDS011;16799;50.844;5.304;2023-04-24T09:55:23;19.83;;;7.90;;
29938;SDS011;16799;50.844;5.304;2023-04-24T09:57:51;9.80;;;7.10;;
29938;SDS011;16799;50.844;5.304;2023-04-24T10:00:18;15.33;;;8.80;;
29938;SDS011;16799;50.844;5.304;2023-04-24T10:05:42;9.87;;;6.17;;
29938;SDS011;16799;50.844;5.304;2023-04-24T10:08:11;14.43;;;8.03;;
29938;SDS011;16799;50.844;5.304;2023-04-24T10:10:41;12.40;;;8.80;;
29938;SDS011;16799;50.844;5.304;2023-04-24T10:13:08;12.77;;;7.30;;
29938;SDS011;16799;50.844;5.304;2023-04-24T10:15:36;12.77;;;7.10;;
29938;SDS011;16799;50.844;5.304;2023-04-24T10:18:02;13.13;;;7.73;;
29938;SDS011;16799;50.844;5.304;2023-04-24T10:20:31;12.63;;;6.70;;
29938;SDS011;16799;50.844;5.304;2023-04-24T10:22:58;11.20;;;6.10;;
29938;SDS011;16799;50.844;5.304;2023-04-24T10:25:25;7.43;;;6.03;;
29938;SDS011;16799;50.844;5.304;2023-04-24T10:27:53;16.63;;;6.83;;
29938;SDS011;16799;50.844;5.304;2023-04-24T10:30:24;13.60;;;7.33;;
29938;SDS011;16799;50.844;5.304;2023-04-24T10:32:51;10.43;;;7.57;;
29938;SDS011;16799;50.844;5.304;2023-04-24T10:35:17;13.13;;;6.50;;
29938;SDS011;16799;50.844;5.304;2023-04-24T10:38:18;9.13;;;5.90;;
29938;SDS011;16799;50.844;5.304;2023-04-24T10:40:38;16.93;;;6.93;;
29938;SDS011;16799;50.844;5.304;2023-04-24T10:43:07;11.90;;;7.17;;
29938;SDS011;16799;50.844;5.304;2023-04-24T10:45:37;10.67;;;6.30;;
29938;SDS011;16799;50.844;5.304;2023-04-24T10:48:09;9.30;;;6.90;;
29938;SDS011;16799;50.844;5.304;2023-04-24T10:50:50;8.63;;;5.80;;
29938;SDS011;16799;50.844;5.304;2023-04-24T10:53:18;12.57;;;5.40;;
29938;SDS011;16799;50.844;5.304;2023-04-24T10:58:12;10.97;;;5.57;;
29938;SDS011;16799;50.844;5.304;2023-04-24T11:00:40;13.03;;;4.83;;
29938;SDS011;16799;50.844;5.304;2023-04-24T11:03:28;5.43;;;4.07;;
29938;SDS011;16799;50.844;5.304;2023-04-24T11:05:58;7.80;;;5.73;;
29938;SDS011;16799;50.844;5.304;2023-04-24T11:08:39;5.20;;;4.53;;
29938;SDS011;16799;50.844;5.304;2023-04-24T11:19:04;11.03;;;4.50;;
29938;SDS011;16799;50.844;5.304;2023-04-24T11:21:41;9.40;;;4.93;;
29938;SDS011;16799;50.844;5.304;2023-04-24T11:32:17;8.10;;;4.70;;
29938;SDS011;16799;50.844;5.304;2023-04-24T11:34:48;7.13;;;4.10;;
29938;SDS011;16799;50.844;5.304;2023-04-24T11:37:15;6.10;;;5.50;;
29938;SDS011;16799;50.844;5.304;2023-04-24T11:39:41;14.53;;;4.83;;
29938;SDS011;16799;50.844;5.304;2023-04-24T11:42:08;11.97;;;5.60;;
29938;SDS011;16799;50.844;5.304;2023-04-24T11:44:34;5.80;;;4.80;;
29938;SDS011;16799;50.844;5.304;2023-04-24T11:47:03;9.03;;;5.80;;
29938;SDS011;16799;50.844;5.304;2023-04-24T11:49:32;19.27;;;5.40;;
29938;SDS011;16799;50.844;5.304;2023-04-24T11:52:01;12.97;;;5.57;;
29938;SDS011;16799;50.844;5.304;2023-04-24T11:54:27;14.90;;;5.80;;
29938;SDS011;16799;50.844;5.304;2023-04-24T11:56:53;7.63;;;4.93;;
29938;SDS011;16799;50.844;5.304;2023-04-24T11:59:19;10.20;;;5.43;;
29938;SDS011;16799;50.844;5.304;2023-04-24T12:01:48;6.10;;;4.83;;
29938;SDS011;16799;50.844;5.304;2023-04-24T12:04:15;7.13;;;4.90;;
29938;SDS011;16799;50.844;5.304;2023-04-24T12:09:26;15.40;;;5.70;;
29938;SDS011;16799;50.844;5.304;2023-04-24T12:11:58;5.57;;;4.43;;
29938;SDS011;16799;50.844;5.304;2023-04-24T12:14:23;8.37;;;4.70;;
29938;SDS011;16799;50.844;5.304;2023-04-24T12:16:49;7.53;;;4.47;;
29938;SDS011;16799;50.844;5.304;2023-04-24T12:19:21;12.50;;;5.50;;
29938;SDS011;16799;50.844;5.304;2023-04-24T12:22:09;6.73;;;5.20;;
29938;SDS011;16799;50.844;5.304;2023-04-24T12:24:33;9.03;;;4.27;;
29938;SDS011;16799;50.844;5.304;2023-04-24T12:26:59;6.00;;;5.50;;
29938;SDS011;16799;50.844;5.304;2023-04-24T12:29:26;8.07;;;5.40;;
29938;SDS011;16799;50.844;5.304;2023-04-24T12:31:52;4.97;;;4.57;;
29938;SDS011;16799;50.844;5.304;2023-04-24T12:34:21;6.90;;;4.50;;
29938;SDS011;16799;50.844;5.304;2023-04-24T12:36:48;4.30;;;3.90;;
29938;SDS011;16799;50.844;5.304;2023-04-24T12:39:15;7.27;;;4.40;;
29938;SDS011;16799;50.844;5.304;2023-04-24T12:41:51;6.07;;;4.20;;
29938;SDS011;16799;50.844;5.304;2023-04-24T12:44:28;6.77;;;5.10;;
29938;SDS011;16799;50.844;5.304;2023-04-24T12:46:59;15.23;;;5.87;;
29938;SDS011;16799;50.844;5.304;2023-04-24T12:49:29;9.87;;;5.20;;
29938;SDS011;16799;50.844;5.304;2023-04-24T12:51:56;11.50;;;5.73;;
29938;SDS011;16799;50.844;5.304;2023-04-24T12:54:22;7.83;;;4.73;;
29938;SDS011;16799;50.844;5.304;2023-04-24T12:56:48;6.00;;;4.90;;
29938;SDS011;16799;50.844;5.304;2023-04-24T12:59:13;5.57;;;5.00;;
29938;SDS011;16799;50.844;5.304;2023-04-24T13:01:39;5.47;;;4.97;;
29938;SDS011;16799;50.844;5.304;2023-04-24T13:04:05;8.97;;;5.73;;
29938;SDS011;16799;50.844;5.304;2023-04-24T13:06:31;12.60;;;5.97;;
29938;SDS011;16799;50.844;5.304;2023-04-24T13:08:57;7.37;;;4.30;;
29938;SDS011;16799;50.844;5.304;2023-04-24T13:11:23;6.27;;;5.43;;
29938;SDS011;16799;50.844;5.304;2023-04-24T13:13:49;12.07;;;5.57;;
29938;SDS011;16799;50.844;5.304;2023-04-24T13:16:15;8.57;;;5.70;;
29938;SDS011;16799;50.844;5.304;2023-04-24T13:18:41;9.17;;;6.03;;
29938;SDS011;16799;50.844;5.304;2023-04-24T13:21:06;5.20;;;4.70;;
29938;SDS011;16799;50.844;5.304;2023-04-24T13:23:32;10.13;;;4.83;;
29938;SDS011;16799;50.844;5.304;2023-04-24T13:25:58;4.53;;;4.13;;
29938;SDS011;16799;50.844;5.304;2023-04-24T13:28:24;4.70;;;3.80;;
29938;SDS011;16799;50.844;5.304;2023-04-24T13:30:50;5.87;;;5.10;;
29938;SDS011;16799;50.844;5.304;2023-04-24T13:33:16;5.30;;;4.40;;
29938;SDS011;16799;50.844;5.304;2023-04-24T13:35:42;5.23;;;4.47;;
29938;SDS011;16799;50.844;5.304;2023-04-24T13:38:07;5.10;;;3.87;;
29938;SDS011;16799;50.844;5.304;2023-04-24T13:40:33;9.57;;;4.63;;
29938;SDS011;16799;50.844;5.304;2023-04-24T13:42:59;5.30;;;4.73;;
29938;SDS011;16799;50.844;5.304;2023-04-24T13:45:25;6.57;;;4.40;;
29938;SDS011;16799;50.844;5.304;2023-04-24T13:47:51;8.70;;;3.23;;
29938;SDS011;16799;50.844;5.304;2023-04-24T13:50:18;8.93;;;5.13;;
29938;SDS011;16799;50.844;5.304;2023-04-24T13:52:44;8.20;;;4.70;;
29938;SDS011;16799;50.844;5.304;2023-04-24T13:55:10;13.67;;;5.77;;
29938;SDS011;16799;50.844;5.304;2023-04-24T13:57:35;4.80;;;4.40;;
29938;SDS011;16799;50.844;5.304;2023-04-24T14:00:01;8.00;;;3.93;;
29938;SDS011;16799;50.844;5.304;2023-04-24T14:02:28;5.33;;;4.73;;
29938;SDS011;16799;50.844;5.304;2023-04-24T14:04:54;6.43;;;4.43;;
29938;SDS011;16799;50.844;5.304;2023-04-24T14:07:20;4.37;;;4.00;;
29938;SDS011;16799;50.844;5.304;2023-04-24T14:09:46;10.90;;;3.90;;
29938;SDS011;16799;50.844;5.304;2023-04-24T14:12:12;6.43;;;5.53;;
29938;SDS011;16799;50.844;5.304;2023-04-24T14:14:38;7.73;;;4.63;;
29938;SDS011;16799;50.844;5.304;2023-04-24T14:17:04;5.00;;;3.40;;
29938;SDS011;16799;50.844;5.304;2023-04-24T14:19:30;4.20;;;3.80;;
29938;SDS011;16799;50.844;5.304;2023-04-24T14:21:56;13.07;;;4.97;;
29938;SDS011;16799;50.844;5.304;2023-04-24T14:24:23;7.60;;;3.50;;
29938;SDS011;16799;50.844;5.304;2023-04-24T14:26:49;14.20;;;5.43;;
29938;SDS011;16799;50.844;5.304;2023-04-24T14:29:14;5.30;;;3.97;;
29938;SDS011;16799;50.844;5.304;2023-04-24T14:31:41;5.20;;;3.80;;
29938;SDS011;16799;50.844;5.304;2023-04-24T14:34:07;11.77;;;4.40;;
29938;SDS011;16799;50.844;5.304;2023-04-24T14:36:33;8.27;;;3.90;;
29938;SDS011;16799;50.844;5.304;2023-04-24T14:38:58;6.23;;;4.77;;
29938;SDS011;16799;50.844;5.304;2023-04-24T14:41:24;6.77;;;3.57;;
29938;SDS011;16799;50.844;5.304;2023-04-24T14:43:50;5.87;;;4.13;;
29938;SDS011;16799;50.844;5.304;2023-04-24T14:46:15;3.93;;;3.60;;
29938;SDS011;16799;50.844;5.304;2023-04-24T14:48:41;8.33;;;3.43;;
29938;SDS011;16799;50.844;5.304;2023-04-24T14:51:07;6.23;;;4.73;;
29938;SDS011;16799;50.844;5.304;2023-04-24T14:53:32;6.40;;;4.00;;